This is the latest recevied weather packets stored in our database for station/object EA1JVZ-1. If no packets are shown the sender has not sent any weather packets the latest 10 day(s).
| Time | Temp. | Humidity | Pressure | Rain* | Wind** | Luminosity | Snow |
|---|---|---|---|---|---|---|---|
| 1777209666 | 27.78° C | 44% | 1028.6 hPa | - | - | - | - |
| 1777208766 | 28.89° C | 44% | 1028.7 hPa | - | - | - | - |
| 1777207866 | 29.44° C | 43% | 1028.5 hPa | - | - | - | - |
| 1777206966 | 27.22° C | 45% | 1028.7 hPa | - | - | - | - |
| 1777206065 | 26.11° C | 46% | 1028.8 hPa | - | - | - | - |
| 1777205165 | 26.67° C | 46% | 1028.9 hPa | - | - | - | - |
| 1777204264 | 24.44° C | 49% | 1029.1 hPa | - | - | - | - |
| 1777203364 | 25° C | 47% | 1029.1 hPa | - | - | - | - |
| 1777202464 | 25° C | 47% | 1029.1 hPa | - | - | - | - |
| 1777201564 | 22.22° C | 49% | 1029.2 hPa | - | - | - | - |
| 1777200664 | 21.11° C | 49% | 1029.4 hPa | - | - | - | - |
| 1777199763 | 20.56° C | 49% | 1029.5 hPa | - | - | - | - |
| 1777198863 | 20.56° C | 49% | 1029.5 hPa | - | - | - | - |
| 1777197963 | 19.44° C | 50% | 1029.5 hPa | - | - | - | - |
| 1777197063 | 19.44° C | 49% | 1029.6 hPa | - | - | - | - |
| 1777196163 | 19.44° C | 49% | 1029.6 hPa | - | - | - | - |
| 1777195263 | 18.33° C | 49% | 1029.7 hPa | - | - | - | - |
| 1777194362 | 18.33° C | 49% | 1029.8 hPa | - | - | - | - |
| 1777193462 | 17.22° C | 49% | 1029.7 hPa | - | - | - | - |
| 1777192562 | 16.67° C | 49% | 1029.7 hPa | - | - | - | - |
| 1777191662 | 15.56° C | 49% | 1029.8 hPa | - | - | - | - |
| 1777190762 | 14.44° C | 49% | 1029.8 hPa | - | - | - | - |
| 1777189862 | 13.33° C | 50% | 1029.7 hPa | - | - | - | - |
| 1777188961 | 12.78° C | 50% | 1029.8 hPa | - | - | - | - |
| 1777188061 | 11.67° C | 51% | 1029.6 hPa | - | - | - | - |
* Rain since midnight (hover to see other rain measurements)
** Current wind speed in m/s (hover to see current wind gust speed)